createdAt,value
2022-10-18T00:00:06.014Z,13.29
2022-10-18T00:02:32.589Z,13.26
2022-10-18T00:04:59.163Z,13.25
2022-10-18T00:07:25.636Z,13.24
2022-10-18T00:09:52.417Z,13.21
2022-10-18T00:12:18.943Z,13.21
2022-10-18T00:14:49.791Z,13.21
2022-10-18T00:17:16.748Z,13.16
2022-10-18T00:19:43.325Z,13.17
2022-10-18T00:22:09.815Z,13.15
2022-10-18T00:24:36.340Z,13.15
2022-10-18T00:27:02.818Z,13.12
2022-10-18T00:29:29.306Z,13.11
2022-10-18T00:31:55.785Z,13.09
2022-10-18T00:34:22.294Z,13.08
2022-10-18T00:36:48.855Z,13.06
2022-10-18T00:39:19.063Z,13.03
2022-10-18T00:41:46.493Z,13.03
2022-10-18T00:44:12.936Z,13.03
2022-10-18T00:46:42.554Z,13.02
2022-10-18T00:49:15.793Z,13.00
2022-10-18T00:51:50.030Z,12.99
2022-10-18T00:54:18.147Z,12.98
2022-10-18T00:56:45.452Z,12.96
2022-10-18T00:59:14.853Z,12.97
2022-10-18T01:01:41.506Z,12.96
2022-10-18T01:04:08.073Z,12.95
2022-10-18T01:06:46.608Z,12.92
2022-10-18T01:09:48.663Z,12.89
2022-10-18T01:12:47.613Z,12.86
2022-10-18T01:15:29.168Z,12.86
2022-10-18T01:18:46.827Z,12.87
2022-10-18T01:21:31.855Z,12.85
2022-10-18T01:24:30.895Z,12.85
2022-10-18T01:27:00.247Z,12.85
2022-10-18T01:29:53.250Z,12.83
2022-10-18T01:32:24.905Z,12.82
2022-10-18T01:34:55.926Z,12.81
2022-10-18T01:37:23.194Z,12.79
2022-10-18T01:39:55.040Z,12.79
2022-10-18T01:42:21.902Z,12.79
2022-10-18T01:44:52.122Z,12.76
2022-10-18T01:47:19.678Z,12.74
2022-10-18T01:49:46.754Z,12.73
2022-10-18T01:52:15.239Z,12.71
2022-10-18T01:54:49.030Z,12.68
2022-10-18T01:57:24.809Z,12.67
2022-10-18T01:59:57.529Z,12.65
2022-10-18T02:02:34.737Z,12.62
2022-10-18T02:05:25.816Z,12.59
2022-10-18T02:08:19.271Z,12.59
2022-10-18T02:10:50.623Z,12.57
2022-10-18T02:13:20.754Z,12.58
2022-10-18T02:15:50.599Z,12.58
2022-10-18T02:18:36.508Z,12.57
2022-10-18T02:21:05.703Z,12.55
2022-10-18T02:23:35.043Z,12.57
2022-10-18T02:26:02.153Z,12.58
2022-10-18T02:28:28.755Z,12.57
2022-10-18T02:31:10.806Z,12.58
2022-10-18T02:34:04.533Z,12.58
2022-10-18T02:36:46.366Z,12.59
2022-10-18T02:39:16.738Z,12.59
2022-10-18T02:41:43.674Z,12.58
2022-10-18T02:44:10.957Z,12.57
2022-10-18T02:46:37.615Z,12.57
2022-10-18T02:49:04.162Z,12.58
2022-10-18T02:51:31.220Z,12.55
2022-10-18T02:53:57.712Z,12.55
2022-10-18T02:56:24.281Z,12.54
2022-10-18T02:58:50.746Z,12.51
2022-10-18T03:01:17.336Z,12.49
2022-10-18T03:03:43.835Z,12.47
2022-10-18T03:06:10.404Z,12.45
2022-10-18T03:08:36.896Z,12.43
2022-10-18T03:11:03.451Z,12.39
2022-10-18T03:16:01.887Z,12.36
2022-10-18T03:18:28.447Z,12.33
2022-10-18T03:20:54.955Z,12.29
2022-10-18T03:23:21.799Z,12.29
2022-10-18T03:25:48.365Z,12.26
2022-10-18T03:28:14.865Z,12.24
2022-10-18T03:30:41.359Z,12.20
2022-10-18T03:33:07.841Z,12.19
2022-10-18T03:35:34.648Z,12.16
2022-10-18T03:38:01.206Z,12.12
2022-10-18T03:40:27.899Z,12.10
2022-10-18T03:42:54.410Z,12.08
2022-10-18T03:45:21.088Z,12.06
2022-10-18T03:47:47.654Z,12.05
2022-10-18T03:50:14.236Z,12.00
2022-10-18T03:52:40.776Z,11.97
2022-10-18T03:55:07.734Z,11.93
2022-10-18T03:57:34.312Z,11.88
2022-10-18T04:00:00.882Z,11.83
2022-10-18T04:02:27.382Z,11.79
2022-10-18T04:04:53.850Z,11.78
2022-10-18T04:07:20.360Z,11.71
2022-10-18T04:09:46.905Z,11.68
2022-10-18T04:12:13.486Z,11.68
2022-10-18T04:14:39.970Z,11.65
2022-10-18T04:17:06.495Z,11.62
2022-10-18T04:19:32.996Z,11.58
2022-10-18T04:21:59.493Z,11.54
2022-10-18T04:24:26.014Z,11.52
2022-10-18T04:26:52.511Z,11.48
2022-10-18T04:29:18.975Z,11.46
2022-10-18T04:31:45.497Z,11.42
2022-10-18T04:34:12.082Z,11.40
2022-10-18T04:36:38.588Z,11.36
2022-10-18T04:39:05.066Z,11.32
2022-10-18T04:41:31.607Z,11.30
2022-10-18T04:43:58.080Z,11.29
2022-10-18T04:46:24.594Z,11.28
2022-10-18T04:48:51.099Z,11.27
2022-10-18T04:51:17.621Z,11.29
2022-10-18T04:53:44.124Z,11.28
2022-10-18T04:56:10.841Z,11.30
2022-10-18T04:58:37.334Z,11.32
2022-10-18T05:01:07.743Z,11.36
2022-10-18T05:03:34.462Z,11.41
2022-10-18T05:06:02.575Z,11.44
2022-10-18T05:08:30.729Z,11.48
2022-10-18T05:10:57.437Z,11.51
2022-10-18T05:13:24.078Z,11.57
2022-10-18T05:15:50.868Z,11.64
2022-10-18T05:18:17.513Z,11.70
2022-10-18T05:20:44.126Z,11.71
2022-10-18T05:23:10.964Z,11.74
2022-10-18T05:25:42.062Z,11.79
2022-10-18T05:28:10.777Z,11.80
2022-10-18T05:30:47.858Z,11.85
2022-10-18T05:33:14.376Z,11.89
2022-10-18T05:35:40.857Z,11.93
2022-10-18T05:38:07.452Z,11.92
2022-10-18T05:40:33.993Z,11.92
2022-10-18T05:43:00.535Z,11.93
2022-10-18T05:45:27.076Z,11.96
2022-10-18T05:47:54.794Z,11.97
2022-10-18T05:50:21.344Z,11.98
2022-10-18T05:52:47.873Z,11.99
2022-10-18T05:55:14.347Z,12.01
2022-10-18T05:57:40.816Z,12.01
2022-10-18T06:00:07.893Z,12.01
2022-10-18T06:02:34.600Z,12.04
2022-10-18T06:05:01.084Z,12.05
2022-10-18T06:07:27.579Z,12.06
2022-10-18T06:09:54.033Z,12.06
2022-10-18T06:12:20.529Z,12.07
2022-10-18T06:14:47.700Z,12.08
2022-10-18T06:17:14.283Z,12.10
2022-10-18T06:19:40.840Z,12.11
2022-10-18T06:22:07.359Z,12.13
2022-10-18T06:24:33.839Z,12.15
2022-10-18T06:27:00.422Z,12.16
2022-10-18T06:29:27.028Z,12.16
2022-10-18T06:31:53.509Z,12.17
2022-10-18T06:34:20.133Z,12.16
2022-10-18T06:36:46.626Z,12.16
2022-10-18T06:39:13.138Z,12.20
2022-10-18T06:41:39.600Z,12.22
2022-10-18T06:44:13.658Z,12.23
2022-10-18T06:46:44.311Z,12.22
2022-10-18T06:49:13.082Z,12.24
2022-10-18T06:51:43.677Z,12.27
2022-10-18T06:54:17.964Z,12.29
2022-10-18T06:56:45.454Z,12.31
2022-10-18T06:59:12.120Z,12.32
2022-10-18T07:01:38.866Z,12.33
2022-10-18T07:04:05.481Z,12.35
2022-10-18T07:06:31.968Z,12.36
2022-10-18T07:08:58.484Z,12.37
2022-10-18T07:11:26.703Z,12.38
2022-10-18T07:13:54.992Z,12.36
2022-10-18T07:16:21.638Z,12.36
2022-10-18T07:18:50.627Z,12.30
2022-10-18T07:21:19.799Z,12.33
2022-10-18T07:23:47.043Z,12.37
2022-10-18T07:26:17.880Z,12.39
2022-10-18T07:28:46.242Z,12.42
2022-10-18T07:31:13.246Z,12.44
2022-10-18T07:33:40.160Z,12.44
2022-10-18T07:36:10.234Z,12.39
2022-10-18T07:38:37.074Z,12.39
2022-10-18T07:41:07.074Z,12.42
2022-10-18T07:43:34.657Z,12.46
2022-10-18T07:46:03.340Z,12.49
2022-10-18T07:48:30.165Z,12.51
2022-10-18T07:51:01.192Z,12.54
2022-10-18T07:53:28.871Z,12.55
2022-10-18T07:56:01.337Z,12.56
2022-10-18T07:58:31.968Z,12.54
2022-10-18T08:01:02.363Z,12.55
2022-10-18T08:03:28.867Z,12.59
2022-10-18T08:05:55.639Z,12.61
2022-10-18T08:08:23.870Z,12.61
2022-10-18T08:10:50.457Z,12.54
2022-10-18T08:13:17.327Z,12.56
2022-10-18T08:15:44.175Z,12.60
2022-10-18T08:18:10.809Z,12.62
2022-10-18T08:20:37.874Z,12.58
2022-10-18T08:23:05.175Z,12.63
2022-10-18T08:25:31.848Z,12.67
2022-10-18T08:27:58.581Z,12.64
2022-10-18T08:30:25.129Z,12.69
2022-10-18T08:32:51.663Z,12.71
2022-10-18T08:35:18.326Z,12.70
2022-10-18T08:37:45.406Z,12.72
2022-10-18T08:40:15.166Z,12.74
2022-10-18T08:43:09.405Z,12.74
2022-10-18T08:45:43.226Z,12.72
2022-10-18T08:48:39.401Z,12.71
2022-10-18T08:51:18.357Z,12.60
2022-10-18T08:54:12.691Z,12.63
2022-10-18T08:56:43.086Z,12.67
2022-10-18T08:59:11.951Z,12.68
2022-10-18T09:01:56.366Z,12.65
2022-10-18T09:04:34.927Z,12.68
2022-10-18T09:07:16.615Z,12.72
2022-10-18T09:09:55.102Z,12.78
2022-10-18T09:12:59.354Z,12.83
2022-10-18T09:15:40.147Z,12.90
2022-10-18T09:18:46.349Z,12.91
2022-10-18T09:21:53.004Z,13.01
2022-10-18T09:24:37.725Z,13.08
2022-10-18T09:27:10.736Z,13.14
2022-10-18T09:29:40.424Z,13.15
2022-10-18T09:32:32.299Z,13.21
2022-10-18T09:35:06.297Z,13.26
2022-10-18T09:37:34.991Z,13.33
2022-10-18T09:40:19.123Z,13.23
2022-10-18T09:43:32.255Z,13.35
2022-10-18T09:45:59.129Z,13.37
2022-10-18T09:48:40.573Z,13.37
2022-10-18T09:51:21.828Z,13.51
2022-10-18T09:54:08.953Z,13.57
2022-10-18T09:56:48.021Z,13.70
2022-10-18T09:59:38.540Z,13.80
2022-10-18T10:02:06.248Z,13.90
2022-10-18T10:04:33.070Z,14.00
2022-10-18T10:07:01.854Z,14.03
2022-10-18T10:09:40.756Z,14.13
2022-10-18T10:12:26.806Z,14.25
2022-10-18T10:14:53.405Z,14.34
2022-10-18T10:17:29.767Z,14.38
2022-10-18T10:20:04.414Z,14.41
2022-10-18T10:22:38.348Z,14.27
2022-10-18T10:25:06.121Z,14.25
2022-10-18T10:27:46.113Z,14.27
2022-10-18T10:30:34.337Z,14.34
2022-10-18T10:33:01.507Z,14.36
2022-10-18T10:35:53.808Z,14.38
2022-10-18T10:38:26.353Z,14.20
2022-10-18T10:40:53.306Z,14.29
2022-10-18T10:43:38.067Z,14.23
2022-10-18T10:46:08.070Z,14.28
2022-10-18T10:49:35.018Z,14.31
2022-10-18T10:52:08.609Z,14.42
2022-10-18T10:54:39.139Z,14.50
2022-10-18T10:57:12.558Z,14.60
2022-10-18T10:59:47.975Z,14.72
2022-10-18T11:02:15.072Z,14.75
2022-10-18T11:04:42.543Z,14.65
2022-10-18T11:07:08.967Z,14.54
2022-10-18T11:09:48.169Z,14.61
2022-10-18T11:12:23.897Z,14.67
2022-10-18T11:14:56.290Z,14.63
2022-10-18T11:17:22.732Z,14.69
2022-10-18T11:20:07.265Z,14.85
2022-10-18T11:22:38.847Z,14.96
2022-10-18T11:25:06.079Z,15.01
2022-10-18T11:27:57.894Z,15.12
2022-10-18T11:30:30.304Z,15.16
2022-10-18T11:33:06.720Z,15.20
2022-10-18T11:35:44.405Z,15.26
2022-10-18T11:38:24.825Z,15.34
2022-10-18T11:41:17.236Z,15.48
2022-10-18T11:44:02.349Z,15.59
2022-10-18T11:46:32.784Z,15.68
2022-10-18T11:49:22.584Z,15.67
2022-10-18T11:52:12.805Z,15.72
2022-10-18T11:54:45.162Z,15.76
2022-10-18T11:57:24.147Z,15.73
2022-10-18T11:59:56.761Z,15.69
2022-10-18T12:02:54.213Z,15.63
2022-10-18T12:05:24.044Z,15.71
2022-10-18T12:08:02.499Z,15.62
2022-10-18T12:10:45.826Z,15.60
2022-10-18T12:13:25.549Z,15.61
2022-10-18T12:15:52.508Z,15.68
2022-10-18T12:18:23.417Z,15.69
2022-10-18T12:20:54.047Z,15.70
2022-10-18T12:23:29.902Z,15.76
2022-10-18T12:26:03.438Z,15.72
2022-10-18T12:28:33.043Z,15.59
2022-10-18T12:31:20.188Z,15.50
2022-10-18T12:33:50.388Z,15.54
2022-10-18T12:36:22.643Z,15.54
2022-10-18T12:38:58.655Z,15.31
2022-10-18T12:41:28.209Z,15.43
2022-10-18T12:44:06.480Z,15.25
2022-10-18T12:46:57.821Z,15.25
2022-10-18T12:49:29.763Z,15.16
2022-10-18T12:51:59.684Z,15.12
2022-10-18T12:54:34.415Z,15.18
2022-10-18T12:57:02.854Z,15.24
2022-10-18T12:59:29.260Z,15.17
2022-10-18T13:01:55.751Z,15.09
2022-10-18T13:04:28.473Z,14.99
2022-10-18T13:07:00.881Z,14.96
2022-10-18T13:09:30.345Z,14.85
2022-10-18T13:12:09.257Z,14.76
2022-10-18T13:15:12.721Z,14.80
2022-10-18T13:17:47.109Z,14.81
2022-10-18T13:20:31.934Z,14.84
2022-10-18T13:23:26.136Z,14.75
2022-10-18T13:26:04.970Z,14.80
2022-10-18T13:28:50.144Z,14.75
2022-10-18T13:31:44.207Z,14.80
2022-10-18T13:34:17.813Z,14.77
2022-10-18T13:36:44.678Z,14.79
2022-10-18T13:39:20.389Z,14.82
2022-10-18T13:41:46.840Z,14.86
2022-10-18T13:44:37.386Z,14.90
2022-10-18T13:47:03.814Z,14.87
2022-10-18T13:49:39.213Z,14.88
2022-10-18T13:52:36.702Z,14.83
2022-10-18T13:55:14.613Z,14.85
2022-10-18T13:57:49.801Z,14.85
2022-10-18T14:00:40.272Z,14.86
2022-10-18T14:03:58.280Z,14.70
2022-10-18T14:06:40.327Z,14.66
2022-10-18T14:09:32.550Z,14.62
2022-10-18T14:12:43.681Z,14.56
2022-10-18T14:15:32.803Z,14.54
2022-10-18T14:18:04.845Z,14.53
2022-10-18T14:20:48.955Z,14.52
2022-10-18T14:23:22.093Z,14.38
2022-10-18T14:25:48.846Z,14.33
2022-10-18T14:28:31.265Z,14.26
2022-10-18T14:31:09.355Z,14.25
2022-10-18T14:33:41.546Z,14.19
2022-10-18T14:36:22.060Z,14.18
2022-10-18T14:38:58.990Z,14.18
2022-10-18T14:41:34.729Z,14.16
2022-10-18T14:44:21.465Z,14.13
2022-10-18T14:47:14.994Z,14.04
2022-10-18T14:49:46.158Z,14.07
2022-10-18T14:52:17.683Z,14.05
2022-10-18T14:54:45.200Z,14.03
2022-10-18T14:57:23.539Z,14.04
2022-10-18T14:59:57.034Z,14.02
2022-10-18T15:02:26.747Z,14.01
2022-10-18T15:04:59.691Z,14.02
2022-10-18T15:07:29.316Z,14.04
2022-10-18T15:09:59.227Z,13.93
2022-10-18T15:12:29.627Z,13.93
2022-10-18T15:15:00.273Z,13.93
2022-10-18T15:17:29.975Z,13.90
2022-10-18T15:20:01.954Z,13.81
2022-10-18T15:22:33.228Z,13.83
2022-10-18T15:25:05.963Z,13.73
2022-10-18T15:27:36.462Z,13.76
2022-10-18T15:30:28.921Z,13.73
2022-10-18T15:33:04.481Z,13.60
2022-10-18T15:35:34.724Z,13.63
2022-10-18T15:38:16.813Z,13.63
2022-10-18T15:40:44.151Z,13.63
2022-10-18T15:43:22.826Z,13.57
2022-10-18T15:45:51.512Z,13.53
2022-10-18T15:48:39.635Z,13.58
2022-10-18T15:51:12.568Z,13.51
2022-10-18T15:53:53.657Z,13.44
2022-10-18T15:56:38.177Z,13.46
2022-10-18T15:59:20.692Z,13.44
2022-10-18T16:01:47.264Z,13.38
2022-10-18T16:04:25.909Z,13.39
2022-10-18T16:06:54.215Z,13.36
2022-10-18T16:09:22.074Z,13.29
2022-10-18T16:11:56.401Z,13.29
2022-10-18T16:14:23.745Z,13.27
2022-10-18T16:16:54.444Z,13.24
2022-10-18T16:19:22.706Z,13.24
2022-10-18T16:21:50.774Z,13.22
2022-10-18T16:24:17.781Z,13.21
2022-10-18T16:26:44.376Z,13.27
2022-10-18T16:29:33.045Z,13.36
2022-10-18T16:32:00.018Z,13.41
2022-10-18T16:34:27.134Z,13.45
2022-10-18T16:36:54.518Z,13.56
2022-10-18T16:39:22.694Z,13.62
2022-10-18T16:42:06.992Z,13.67
2022-10-18T16:44:33.464Z,13.68
2022-10-18T16:46:59.995Z,13.71
2022-10-18T16:49:26.765Z,13.78
2022-10-18T16:51:54.198Z,13.83
2022-10-18T16:54:20.836Z,13.91
2022-10-18T16:56:50.352Z,14.00
2022-10-18T16:59:31.070Z,14.00
2022-10-18T17:01:57.895Z,13.94
2022-10-18T17:04:24.542Z,13.85
2022-10-18T17:06:52.659Z,13.83
2022-10-18T17:09:19.171Z,13.79
2022-10-18T17:11:45.699Z,13.79
2022-10-18T17:14:12.173Z,13.85
2022-10-18T17:16:39.127Z,13.82
2022-10-18T17:19:07.964Z,13.86
2022-10-18T17:21:34.585Z,13.92
2022-10-18T17:24:06.005Z,13.94
2022-10-18T17:26:33.783Z,13.94
2022-10-18T17:29:04.050Z,13.97
2022-10-18T17:31:31.698Z,14.00
2022-10-18T17:33:59.790Z,13.97
2022-10-18T17:36:26.290Z,13.94
2022-10-18T17:38:54.219Z,13.91
2022-10-18T17:41:21.306Z,13.91
2022-10-18T17:43:48.439Z,13.89
2022-10-18T17:46:15.898Z,13.81
2022-10-18T17:48:42.824Z,13.82
2022-10-18T17:51:11.384Z,13.83
2022-10-18T17:53:38.285Z,13.80
2022-10-18T17:56:05.688Z,13.71
2022-10-18T17:58:32.380Z,13.65
2022-10-18T18:01:09.649Z,13.68
2022-10-18T18:04:07.167Z,13.59
2022-10-18T18:06:36.263Z,13.56
2022-10-18T18:09:14.192Z,13.49
2022-10-18T18:11:43.545Z,13.51
2022-10-18T18:14:11.580Z,13.47
2022-10-18T18:16:41.240Z,13.48
2022-10-18T18:19:09.957Z,13.44
2022-10-18T18:21:37.109Z,13.46
2022-10-18T18:24:03.891Z,13.38
2022-10-18T18:26:35.159Z,13.38
2022-10-18T18:31:34.332Z,13.37
2022-10-18T18:34:05.338Z,13.37
2022-10-18T18:36:32.685Z,13.38
2022-10-18T18:38:59.395Z,13.38
2022-10-18T18:41:27.647Z,13.37
2022-10-18T18:43:54.293Z,13.37
2022-10-18T18:46:22.081Z,13.37
2022-10-18T18:48:49.058Z,13.35
2022-10-18T18:51:18.638Z,13.35
2022-10-18T18:53:46.855Z,13.33
2022-10-18T18:56:24.289Z,13.35
2022-10-18T18:58:52.519Z,13.35
2022-10-18T19:01:22.210Z,13.33
2022-10-18T19:03:51.526Z,13.30
2022-10-18T19:06:27.753Z,13.26
2022-10-18T19:09:00.669Z,13.22
2022-10-18T19:11:29.626Z,13.20
2022-10-18T19:13:56.225Z,13.12
2022-10-18T19:16:24.677Z,13.11
2022-10-18T19:18:56.082Z,13.07
2022-10-18T19:21:24.659Z,13.00
2022-10-18T19:23:51.588Z,12.97
2022-10-18T19:26:30.295Z,13.00
2022-10-18T19:29:01.875Z,12.95
2022-10-18T19:31:28.876Z,12.91
2022-10-18T19:33:59.788Z,12.88
2022-10-18T19:36:27.840Z,12.87
2022-10-18T19:38:54.642Z,12.81
2022-10-18T19:41:21.710Z,12.79
2022-10-18T19:43:48.456Z,12.77
2022-10-18T19:46:15.105Z,12.79
2022-10-18T19:48:41.964Z,12.81
2022-10-18T19:51:09.751Z,12.79
2022-10-18T19:53:37.013Z,12.76
2022-10-18T19:56:05.416Z,12.75
2022-10-18T19:58:32.269Z,12.71
2022-10-18T20:01:00.200Z,12.66
2022-10-18T20:03:30.307Z,12.67
2022-10-18T20:06:02.566Z,12.64
2022-10-18T20:08:32.378Z,12.60
2022-10-18T20:11:14.617Z,12.56
2022-10-18T20:13:41.336Z,12.53
2022-10-18T20:16:10.395Z,12.49
2022-10-18T20:18:37.422Z,12.46
2022-10-18T20:21:05.908Z,12.43
2022-10-18T20:23:34.653Z,12.41
2022-10-18T20:26:04.593Z,12.42
2022-10-18T20:28:32.672Z,12.42
2022-10-18T20:30:59.976Z,12.38
2022-10-18T20:33:26.448Z,12.26
2022-10-18T20:35:53.037Z,12.22
2022-10-18T20:38:20.052Z,12.19
2022-10-18T20:40:46.641Z,12.12
2022-10-18T20:43:13.178Z,12.05
2022-10-18T20:45:39.691Z,11.99
2022-10-18T20:48:06.277Z,11.94
2022-10-18T20:50:32.774Z,11.92
2022-10-18T20:52:59.276Z,11.88
2022-10-18T20:55:25.769Z,11.86
2022-10-18T20:57:52.258Z,11.79
2022-10-18T21:00:18.790Z,11.79
2022-10-18T21:02:45.332Z,11.76
2022-10-18T21:05:12.027Z,11.75
2022-10-18T21:07:38.510Z,11.71
2022-10-18T21:10:05.568Z,11.73
2022-10-18T21:12:32.254Z,11.75
2022-10-18T21:14:59.345Z,11.73
2022-10-18T21:17:25.908Z,11.70
2022-10-18T21:19:53.695Z,11.67
2022-10-18T21:22:20.187Z,11.68
2022-10-18T21:24:46.695Z,11.67
2022-10-18T21:27:13.754Z,11.70
2022-10-18T21:29:40.235Z,11.69
2022-10-18T21:32:06.736Z,11.71
2022-10-18T21:34:33.309Z,11.72
2022-10-18T21:36:59.820Z,11.71
2022-10-18T21:39:26.325Z,11.68
2022-10-18T21:41:52.888Z,11.67
2022-10-18T21:44:19.496Z,11.64
2022-10-18T21:46:46.904Z,11.64
2022-10-18T21:49:14.322Z,11.67
2022-10-18T21:51:41.584Z,11.63
2022-10-18T21:54:14.676Z,11.61
2022-10-18T21:56:41.724Z,11.62
2022-10-18T21:59:08.290Z,11.62
2022-10-18T22:01:37.894Z,11.62
2022-10-18T22:04:07.940Z,11.60
2022-10-18T22:06:36.394Z,11.54
2022-10-18T22:09:08.220Z,11.51
2022-10-18T22:11:38.432Z,11.51
2022-10-18T22:14:04.951Z,11.51
2022-10-18T22:16:31.962Z,11.49
2022-10-18T22:19:00.987Z,11.46
2022-10-18T22:21:28.286Z,11.45
2022-10-18T22:23:59.103Z,11.47
2022-10-18T22:26:29.615Z,11.48
2022-10-18T22:29:04.325Z,11.48
2022-10-18T22:31:33.509Z,11.48
2022-10-18T22:34:05.159Z,11.49
2022-10-18T22:36:32.265Z,11.48
2022-10-18T22:39:00.081Z,11.47
2022-10-18T22:41:26.782Z,11.45
2022-10-18T22:43:55.548Z,11.43
2022-10-18T22:46:24.171Z,11.41
2022-10-18T22:48:50.683Z,11.40
2022-10-18T22:51:17.888Z,11.39
2022-10-18T22:53:45.171Z,11.40
2022-10-18T22:56:15.189Z,11.40
2022-10-18T22:58:41.794Z,11.41
2022-10-18T23:01:10.922Z,11.42
2022-10-18T23:03:38.312Z,11.39
2022-10-18T23:06:17.172Z,11.36
2022-10-18T23:08:43.637Z,11.34
2022-10-18T23:11:10.130Z,11.35
2022-10-18T23:13:39.461Z,11.34
2022-10-18T23:16:06.596Z,11.34
2022-10-18T23:18:33.599Z,11.33
2022-10-18T23:21:08.069Z,11.30
2022-10-18T23:23:38.143Z,11.26
2022-10-18T23:26:07.191Z,11.24
2022-10-18T23:28:38.955Z,11.20
2022-10-18T23:31:28.487Z,11.12
2022-10-18T23:33:57.060Z,11.10
2022-10-18T23:36:24.266Z,11.08
2022-10-18T23:38:51.169Z,11.05
2022-10-18T23:41:18.171Z,11.07
2022-10-18T23:43:45.003Z,11.04
2022-10-18T23:46:12.634Z,11.02
2022-10-18T23:48:39.269Z,11.02
2022-10-18T23:51:06.498Z,11.02
2022-10-18T23:53:33.366Z,11.02
2022-10-18T23:56:02.954Z,11.03
2022-10-18T23:58:31.366Z,11.02
